Time;durP1;ratioP1;P1;durP2;ratioP2;P2;SDS_P1;SDS_P2;PMS_P1;PMS_P2;Temp;Humidity;BMP_temperature;BMP_pressure;BME280_temperature;BME280_humidity;BME280_pressure;Samples;Min_cycle;Max_cycle;Signal;HPM_P1;HPM_P2
2023/07/22 00:02:08;;;;;;;5.15;1.67;;;13.30;99.90;;;;;;5092117;28;20036;-63
2023/07/22 00:04:34;;;;;;;5.00;1.80;;;13.30;99.90;;;;;;5090772;28;20118;-63
2023/07/22 00:07:00;;;;;;;5.75;1.90;;;13.20;99.90;;;;;;5091744;28;20093;-63
2023/07/22 00:09:26;;;;;;;9.95;2.38;;;13.20;99.90;;;;;;5091760;28;20043;-63
2023/07/22 00:11:51;;;;;;;4.75;2.15;;;13.20;99.90;;;;;;5126133;27;20068;-63
2023/07/22 00:14:17;;;;;;;4.45;1.67;;;13.20;99.90;;;;;;5095855;28;20032;-63
2023/07/22 00:16:42;;;;;;;5.80;1.92;;;13.20;99.90;;;;;;5094698;28;20040;-63
2023/07/22 00:19:08;;;;;;;3.70;1.55;;;13.20;99.90;;;;;;5095496;28;20036;-63
2023/07/22 00:21:34;;;;;;;6.30;2.05;;;13.10;99.90;;;;;;5128308;27;20491;-63
2023/07/22 00:24:00;;;;;;;5.18;2.28;;;13.10;99.90;;;;;;5094858;28;20066;-63
2023/07/22 00:26:26;;;;;;;5.43;2.13;;;13.10;99.90;;;;;;5094322;28;20036;-63
2023/07/22 00:28:52;;;;;;;4.10;1.90;;;13.20;99.90;;;;;;5095041;28;20051;-62
2023/07/22 00:31:18;;;;;;;6.57;1.85;;;13.10;99.90;;;;;;5094814;28;20044;-63
2023/07/22 00:33:44;;;;;;;7.47;2.63;;;13.10;99.90;;;;;;5093701;28;20522;-62
2023/07/22 00:36:10;;;;;;;4.85;2.15;;;13.10;99.90;;;;;;5095123;28;20040;-63
2023/07/22 00:38:35;;;;;;;5.35;2.30;;;13.10;99.90;;;;;;5094337;28;20036;-63
2023/07/22 00:41:04;;;;;;;6.10;2.20;;;13.10;99.90;;;;;;5093754;28;20036;-63
2023/07/22 00:43:30;;;;;;;5.22;2.30;;;13.10;99.90;;;;;;5093759;28;20036;-63
2023/07/22 00:45:56;;;;;;;5.13;2.33;;;13.10;99.90;;;;;;5093293;28;20040;-63
2023/07/22 00:48:22;;;;;;;5.82;1.80;;;13.10;99.90;;;;;;5095107;28;20520;-63
2023/07/22 00:50:48;;;;;;;5.57;1.95;;;13.00;99.90;;;;;;5094563;28;20459;-63
2023/07/22 00:53:14;;;;;;;7.32;2.05;;;13.00;99.90;;;;;;5094467;28;20096;-63
2023/07/22 00:55:42;;;;;;;5.32;1.90;;;13.10;99.90;;;;;;5094552;28;20036;-63
2023/07/22 00:58:08;;;;;;;5.18;2.28;;;13.00;99.90;;;;;;5094844;28;20056;-63
2023/07/22 01:00:34;;;;;;;4.63;1.70;;;13.00;99.90;;;;;;5092850;28;20040;-63
2023/07/22 01:03:00;;;;;;;5.97;2.08;;;13.00;99.90;;;;;;5094508;28;20044;-63
2023/07/22 01:05:27;;;;;;;7.20;2.03;;;13.00;99.90;;;;;;5094745;28;20115;-63
2023/07/22 01:07:53;;;;;;;4.82;1.77;;;12.90;99.90;;;;;;5092468;28;20075;-63
2023/07/22 01:10:19;;;;;;;4.97;2.30;;;12.90;99.90;;;;;;5127669;27;20140;-62
2023/07/22 01:12:45;;;;;;;6.28;2.05;;;12.90;99.90;;;;;;5093482;28;20051;-62
2023/07/22 01:15:11;;;;;;;5.03;2.20;;;12.90;99.90;;;;;;5094554;28;20032;-62
2023/07/22 01:17:38;;;;;;;6.05;2.67;;;12.90;99.90;;;;;;5092999;28;20511;-62
2023/07/22 01:20:05;;;;;;;5.47;2.05;;;12.90;99.90;;;;;;5092190;28;20040;-62
2023/07/22 01:22:32;;;;;;;4.75;1.80;;;12.80;99.90;;;;;;5093077;28;20040;-63
2023/07/22 01:24:59;;;;;;;5.55;2.20;;;12.80;99.90;;;;;;5094259;28;20040;-62
2023/07/22 01:27:25;;;;;;;5.57;2.05;;;12.70;99.90;;;;;;5093562;28;20118;-62
2023/07/22 01:29:51;;;;;;;6.22;2.40;;;12.70;99.90;;;;;;5092639;28;20119;-62
2023/07/22 01:32:18;;;;;;;6.13;2.08;;;12.60;99.90;;;;;;5093114;28;20036;-62
2023/07/22 01:34:43;;;;;;;6.18;2.25;;;12.60;99.90;;;;;;5091913;28;20054;-62
2023/07/22 01:37:12;;;;;;;6.63;2.20;;;12.60;99.90;;;;;;5094354;28;20036;-62
2023/07/22 01:39:40;;;;;;;5.35;2.38;;;12.60;99.90;;;;;;5093562;28;20036;-62
2023/07/22 01:42:06;;;;;;;5.07;2.15;;;12.50;99.90;;;;;;5093230;28;20118;-62
2023/07/22 01:44:32;;;;;;;6.40;2.97;;;12.50;99.90;;;;;;5093858;28;20132;-62
2023/07/22 01:46:57;;;;;;;5.78;2.65;;;12.50;99.90;;;;;;5093565;28;20040;-62
2023/07/22 01:49:24;;;;;;;5.68;2.10;;;12.40;99.90;;;;;;5093238;28;20056;-61
2023/07/22 01:51:50;;;;;;;8.05;2.88;;;12.40;99.90;;;;;;5092197;28;20040;-61
2023/07/22 01:54:15;;;;;;;5.60;2.45;;;12.40;99.90;;;;;;5109995;28;20083;-61
2023/07/22 01:56:41;;;;;;;6.93;2.50;;;12.40;99.90;;;;;;5093004;28;20423;-62
2023/07/22 01:59:08;;;;;;;5.70;2.65;;;12.40;99.90;;;;;;5092531;28;20040;-62
2023/07/22 02:01:34;;;;;;;5.13;2.47;;;12.40;99.90;;;;;;5109157;28;20177;-62
2023/07/22 02:03:59;;;;;;;5.72;2.70;;;12.40;99.90;;;;;;5092429;28;20123;-62
2023/07/22 02:06:26;;;;;;;6.10;2.45;;;12.30;99.90;;;;;;5093854;28;20033;-62
2023/07/22 02:08:52;;;;;;;5.63;2.53;;;12.30;99.90;;;;;;5092079;28;20054;-62
2023/07/22 02:11:18;;;;;;;6.63;2.60;;;12.30;99.90;;;;;;5091515;28;20404;-62
2023/07/22 02:13:44;;;;;;;7.22;2.60;;;12.20;99.90;;;;;;5074889;28;20035;-62
2023/07/22 02:16:12;;;;;;;6.00;2.55;;;12.20;99.90;;;;;;5091681;28;20370;-62
2023/07/22 02:18:38;;;;;;;6.30;3.13;;;12.20;99.90;;;;;;5091767;28;20476;-62
2023/07/22 02:21:04;;;;;;;6.82;3.38;;;12.20;99.90;;;;;;5091833;28;20101;-62
2023/07/22 02:23:29;;;;;;;6.30;3.10;;;12.30;99.90;;;;;;5092342;28;20118;-62
2023/07/22 02:25:55;;;;;;;6.40;2.90;;;12.20;99.90;;;;;;5092930;28;20039;-62
2023/07/22 02:28:22;;;;;;;5.32;2.80;;;12.20;99.90;;;;;;5125959;27;20040;-62
2023/07/22 02:30:50;;;;;;;5.57;2.40;;;12.20;99.90;;;;;;5091923;28;20042;-62
2023/07/22 02:33:16;;;;;;;6.93;2.90;;;12.20;99.90;;;;;;5093291;28;20050;-62
2023/07/22 02:35:42;;;;;;;8.07;2.97;;;12.20;99.90;;;;;;5091367;28;20447;-62
2023/07/22 02:38:08;;;;;;;4.95;2.30;;;12.20;99.90;;;;;;5091033;28;20044;-62
2023/07/22 02:40:37;;;;;;;7.70;2.83;;;12.20;99.90;;;;;;5091513;28;20059;-62
2023/07/22 02:43:03;;;;;;;6.03;2.97;;;12.20;99.90;;;;;;5092757;28;20040;-62
2023/07/22 02:45:29;;;;;;;7.10;3.10;;;12.20;99.90;;;;;;5090734;28;20047;-62
2023/07/22 02:47:55;;;;;;;7.07;3.20;;;12.10;99.90;;;;;;5090265;28;20046;-62
2023/07/22 02:50:21;;;;;;;7.72;3.08;;;12.20;99.90;;;;;;5092873;28;20048;-62
2023/07/22 02:52:47;;;;;;;7.70;2.47;;;12.10;99.90;;;;;;5117546;27;20048;-62
2023/07/22 02:55:19;;;;;;;6.78;2.78;;;12.10;99.90;;;;;;5075762;28;20040;-62
2023/07/22 02:57:46;;;;;;;6.63;2.80;;;12.10;99.90;;;;;;5091805;28;20378;-62
2023/07/22 03:00:13;;;;;;;6.30;2.30;;;12.00;99.90;;;;;;5073742;28;20111;-62
2023/07/22 03:02:39;;;;;;;4.85;2.47;;;12.10;99.90;;;;;;5091425;28;20392;-62
2023/07/22 03:05:07;;;;;;;6.55;2.85;;;12.00;99.90;;;;;;5091755;28;20054;-62
2023/07/22 03:07:34;;;;;;;5.63;2.70;;;12.00;99.90;;;;;;5091491;28;20393;-62
2023/07/22 03:10:00;;;;;;;5.47;2.60;;;12.00;99.90;;;;;;5091062;28;20128;-62
2023/07/22 03:12:27;;;;;;;5.57;2.63;;;12.00;99.90;;;;;;5073759;28;20527;-62
2023/07/22 03:14:53;;;;;;;4.95;2.45;;;12.00;99.90;;;;;;5090662;28;20097;-62
2023/07/22 03:17:18;;;;;;;6.40;2.63;;;12.00;99.90;;;;;;5091544;28;20048;-62
2023/07/22 03:19:44;;;;;;;4.90;2.20;;;12.00;99.90;;;;;;5089904;28;20437;-62
2023/07/22 03:22:14;;;;;;;6.28;2.80;;;12.00;99.90;;;;;;5092356;28;20051;-62
2023/07/22 03:24:39;;;;;;;6.80;3.22;;;12.00;99.90;;;;;;5090770;28;20040;-62
2023/07/22 03:27:06;;;;;;;4.93;2.58;;;12.00;99.90;;;;;;5091845;28;20366;-62
2023/07/22 03:29:32;;;;;;;6.32;3.17;;;12.00;99.90;;;;;;5090937;28;20048;-62
2023/07/22 03:31:59;;;;;;;5.13;2.35;;;12.00;99.90;;;;;;5092136;28;20032;-62
2023/07/22 03:34:30;;;;;;;5.55;2.28;;;12.00;99.90;;;;;;5091700;28;20388;-63
2023/07/22 03:36:55;;;;;;;8.45;2.45;;;12.00;99.90;;;;;;5125216;28;20044;-63
2023/07/22 03:39:21;;;;;;;5.43;2.67;;;12.00;99.90;;;;;;5092213;28;20366;-63
2023/07/22 03:41:47;;;;;;;4.93;2.33;;;12.00;99.90;;;;;;5090772;28;20036;-63
2023/07/22 03:44:12;;;;;;;7.78;2.95;;;12.00;99.90;;;;;;5125381;28;20044;-63
2023/07/22 03:46:38;;;;;;;4.95;2.35;;;12.10;99.90;;;;;;5127068;27;20043;-63
2023/07/22 03:49:05;;;;;;;6.63;2.83;;;12.10;99.90;;;;;;5095311;28;20051;-63
2023/07/22 03:51:30;;;;;;;5.72;2.53;;;12.10;99.90;;;;;;5095812;28;20048;-63
2023/07/22 03:53:57;;;;;;;5.13;2.85;;;12.10;99.90;;;;;;5128803;27;20048;-63
2023/07/22 03:56:23;;;;;;;5.65;2.95;;;12.20;99.90;;;;;;5095558;28;20059;-63
2023/07/22 03:58:50;;;;;;;7.70;2.95;;;12.20;99.90;;;;;;5077635;28;20046;-63
2023/07/22 04:01:15;;;;;;;6.07;2.92;;;12.20;99.90;;;;;;5096148;28;20036;-63
2023/07/22 04:03:41;;;;;;;5.93;2.75;;;12.20;99.90;;;;;;5093591;28;20040;-63
2023/07/22 04:06:07;;;;;;;8.60;3.38;;;12.30;99.90;;;;;;5094673;28;20389;-63
2023/07/22 04:08:33;;;;;;;7.38;3.58;;;12.40;99.90;;;;;;5095637;28;20036;-63
2023/07/22 04:10:59;;;;;;;7.00;3.13;;;12.40;99.90;;;;;;5128298;27;20047;-63
2023/07/22 04:13:25;;;;;;;6.22;3.35;;;12.40;99.90;;;;;;5094547;28;20039;-63
2023/07/22 04:15:51;;;;;;;7.80;3.65;;;12.40;99.90;;;;;;5094449;28;20093;-63
2023/07/22 04:18:18;;;;;;;6.93;3.05;;;12.40;99.90;;;;;;5094687;28;20052;-63
2023/07/22 04:20:45;;;;;;;6.68;3.83;;;12.50;99.90;;;;;;5093846;28;20046;-63
2023/07/22 04:23:11;;;;;;;7.00;4.03;;;12.50;99.90;;;;;;5093756;28;20449;-63
2023/07/22 04:25:43;;;;;;;6.38;3.35;;;12.50;99.90;;;;;;5095508;28;20119;-63
2023/07/22 04:28:09;;;;;;;8.30;3.67;;;12.50;99.90;;;;;;5095848;28;20048;-63
2023/07/22 04:30:36;;;;;;;7.68;4.55;;;12.60;99.90;;;;;;5094454;28;20063;-63
2023/07/22 04:33:03;;;;;;;9.07;4.20;;;12.60;99.90;;;;;;5095192;28;20055;-63
2023/07/22 04:35:38;;;;;;;8.52;3.72;;;12.60;99.90;;;;;;5095087;28;20397;-63
2023/07/22 04:38:04;;;;;;;6.55;3.88;;;12.60;99.90;;;;;;5094549;28;20036;-63
2023/07/22 04:40:30;;;;;;;7.43;4.18;;;12.70;99.90;;;;;;5106046;28;20032;-63
2023/07/22 04:42:57;;;;;;;6.47;3.67;;;12.70;99.90;;;;;;5074829;28;20040;-63
2023/07/22 04:45:27;;;;;;;6.72;3.42;;;12.80;99.90;;;;;;5074358;28;20093;-63
2023/07/22 04:47:52;;;;;;;7.90;3.50;;;12.80;99.90;;;;;;5073267;28;20048;-63
2023/07/22 04:50:18;;;;;;;7.88;4.03;;;12.80;99.90;;;;;;5073482;28;20059;-63
2023/07/22 04:52:47;;;;;;;9.48;4.53;;;12.90;99.90;;;;;;5072581;28;20044;-63
2023/07/22 04:55:14;;;;;;;9.57;4.88;;;13.00;99.90;;;;;;5083979;28;20044;-63
2023/07/22 04:57:42;;;;;;;8.10;3.72;;;13.10;99.90;;;;;;5092727;28;20396;-63
2023/07/22 05:00:18;;;;;;;9.90;4.97;;;13.10;99.90;;;;;;5093086;28;20046;-63
2023/07/22 05:02:48;;;;;;;8.95;4.72;;;13.10;99.90;;;;;;5093592;28;20048;-63
2023/07/22 05:05:14;;;;;;;7.65;4.32;;;13.20;99.90;;;;;;5075955;28;20040;-63
2023/07/22 05:07:40;;;;;;;12.05;4.07;;;13.30;99.90;;;;;;5094431;28;20097;-63
2023/07/22 05:10:11;;;;;;;8.88;4.60;;;13.30;99.90;;;;;;5095018;28;20064;-63
2023/07/22 05:12:38;;;;;;;8.60;5.13;;;13.30;99.90;;;;;;5091729;28;20046;-63
2023/07/22 05:15:05;;;;;;;9.35;5.80;;;13.40;99.90;;;;;;5094344;28;20047;-63
2023/07/22 05:17:31;;;;;;;8.93;5.05;;;13.40;99.90;;;;;;5093104;28;20504;-63
2023/07/22 05:19:57;;;;;;;8.07;4.65;;;13.50;99.90;;;;;;5093458;28;20040;-63
2023/07/22 05:22:23;;;;;;;10.07;4.95;;;13.60;99.90;;;;;;5093378;28;20032;-63
2023/07/22 05:24:49;;;;;;;8.65;5.13;;;13.60;99.90;;;;;;5094033;28;20097;-63
2023/07/22 05:27:15;;;;;;;8.80;5.40;;;13.70;99.90;;;;;;5092869;28;20480;-63
2023/07/22 05:29:41;;;;;;;11.05;5.60;;;13.70;99.90;;;;;;5092290;28;20039;-63
2023/07/22 05:32:07;;;;;;;8.38;4.70;;;13.70;99.90;;;;;;5127221;27;20048;-63
2023/07/22 05:34:33;;;;;;;11.45;6.30;;;13.80;99.90;;;;;;5092156;28;20055;-63
2023/07/22 05:36:58;;;;;;;11.93;5.35;;;13.90;99.90;;;;;;5075070;28;20036;-62
2023/07/22 05:39:25;;;;;;;9.85;5.72;;;13.90;99.90;;;;;;5070129;28;20045;-63
2023/07/22 05:41:51;;;;;;;9.70;5.90;;;14.00;99.90;;;;;;5070097;28;20048;-63
2023/07/22 05:44:16;;;;;;;12.80;6.75;;;14.00;99.90;;;;;;5071190;28;20047;-62
2023/07/22 05:46:42;;;;;;;12.95;6.80;;;14.00;99.90;;;;;;5070694;28;20400;-63
2023/07/22 05:49:09;;;;;;;12.82;6.68;;;14.10;99.90;;;;;;5089780;28;20039;-63
2023/07/22 05:51:34;;;;;;;12.30;6.95;;;14.10;99.90;;;;;;5091194;28;20047;-62
2023/07/22 05:54:00;;;;;;;13.82;7.53;;;14.20;99.90;;;;;;5088636;28;20428;-63
2023/07/22 05:56:26;;;;;;;18.13;7.22;;;14.20;99.90;;;;;;5090725;28;20514;-63
2023/07/22 05:58:51;;;;;;;11.80;7.70;;;14.30;99.90;;;;;;5090452;28;20184;-62
2023/07/22 06:01:17;;;;;;;12.75;6.50;;;14.40;99.90;;;;;;5090268;28;20429;-63
2023/07/22 06:03:43;;;;;;;11.20;6.22;;;14.50;99.90;;;;;;5090326;28;20081;-63
2023/07/22 06:06:10;;;;;;;10.93;6.85;;;14.50;99.90;;;;;;5089843;28;20062;-62
2023/07/22 06:08:36;;;;;;;12.05;7.53;;;14.50;99.90;;;;;;5088219;28;20040;-62
2023/07/22 06:11:01;;;;;;;12.10;6.35;;;14.50;99.90;;;;;;5090392;28;20671;-63
2023/07/22 06:13:27;;;;;;;12.68;6.88;;;14.60;99.90;;;;;;5089489;28;20039;-63
2023/07/22 06:15:53;;;;;;;10.02;6.30;;;14.60;99.90;;;;;;5089326;28;20493;-62
2023/07/22 06:18:19;;;;;;;11.63;6.22;;;14.70;99.90;;;;;;5109633;27;20052;-62
2023/07/22 06:20:45;;;;;;;11.55;6.93;;;14.70;99.90;;;;;;5089593;28;20036;-62
2023/07/22 06:23:11;;;;;;;14.02;6.93;;;14.80;99.90;;;;;;5088487;28;20044;-62
2023/07/22 06:25:37;;;;;;;11.10;6.95;;;14.90;99.90;;;;;;5089676;28;20032;-62
2023/07/22 06:28:02;;;;;;;12.02;7.18;;;14.90;99.90;;;;;;5090090;28;20040;-62
2023/07/22 06:30:28;;;;;;;14.25;7.68;;;15.10;99.90;;;;;;5088031;28;20385;-62
2023/07/22 06:32:54;;;;;;;12.88;7.78;;;15.10;99.90;;;;;;5090102;28;20520;-62
2023/07/22 06:35:20;;;;;;;15.18;8.43;;;15.10;99.90;;;;;;5088800;28;20074;-62
2023/07/22 06:37:46;;;;;;;15.55;8.82;;;15.20;99.90;;;;;;5089058;28;20048;-63
2023/07/22 06:40:12;;;;;;;12.52;8.63;;;15.20;99.90;;;;;;5088685;28;20032;-62
2023/07/22 06:42:37;;;;;;;15.23;8.23;;;15.30;99.90;;;;;;5088666;28;20040;-63
2023/07/22 06:45:05;;;;;;;13.18;8.50;;;15.30;99.90;;;;;;5088068;28;20109;-62
2023/07/22 06:47:30;;;;;;;14.45;9.05;;;15.40;99.90;;;;;;5089024;28;20032;-62
2023/07/22 06:49:56;;;;;;;16.33;8.70;;;15.50;99.90;;;;;;5086235;28;20120;-62
2023/07/22 06:52:22;;;;;;;14.50;8.45;;;15.60;99.90;;;;;;5088351;28;20090;-62
2023/07/22 06:54:48;;;;;;;14.20;8.40;;;15.60;99.90;;;;;;5087117;28;20075;-62
2023/07/22 06:57:14;;;;;;;17.58;8.80;;;15.70;99.90;;;;;;5089530;28;20028;-61
2023/07/22 06:59:39;;;;;;;16.02;9.07;;;15.70;99.90;;;;;;5087873;28;20048;-62
2023/07/22 07:02:05;;;;;;;17.35;9.02;;;15.70;99.90;;;;;;5089896;28;20044;-62
2023/07/22 07:04:31;;;;;;;21.05;9.98;;;15.70;99.90;;;;;;5088746;28;20097;-61
2023/07/22 07:06:57;;;;;;;14.90;9.10;;;15.70;99.90;;;;;;5089535;28;20031;-62
2023/07/22 07:09:22;;;;;;;14.57;9.27;;;15.70;99.90;;;;;;5088118;28;20131;-61
2023/07/22 07:11:48;;;;;;;15.15;9.38;;;15.70;99.90;;;;;;5088009;28;20043;-62
2023/07/22 07:14:14;;;;;;;14.13;9.13;;;15.70;99.90;;;;;;5088200;28;20405;-62
2023/07/22 07:16:39;;;;;;;15.10;9.40;;;15.70;99.90;;;;;;5089547;28;20135;-61
2023/07/22 07:19:05;;;;;;;16.73;9.55;;;15.80;99.90;;;;;;5070706;28;20052;-62
2023/07/22 07:21:31;;;;;;;15.20;9.13;;;15.90;99.90;;;;;;5087627;28;20039;-61
2023/07/22 07:23:57;;;;;;;13.70;9.30;;;15.90;99.90;;;;;;5087833;28;20070;-61
2023/07/22 07:26:23;;;;;;;13.82;9.00;;;16.00;99.90;;;;;;5086985;28;20036;-61
2023/07/22 07:28:50;;;;;;;14.55;9.02;;;16.00;99.90;;;;;;5121273;28;20044;-61
2023/07/22 07:31:17;;;;;;;16.33;10.00;;;16.10;99.90;;;;;;5092059;28;20440;-62
2023/07/22 07:33:42;;;;;;;16.55;9.82;;;16.10;99.90;;;;;;5113191;28;20044;-61
2023/07/22 07:36:08;;;;;;;16.95;9.73;;;16.20;99.90;;;;;;5091489;28;20092;-61
2023/07/22 07:38:34;;;;;;;16.33;9.88;;;16.30;99.90;;;;;;5102271;28;20048;-61
2023/07/22 07:41:08;;;;;;;13.43;8.45;;;16.30;99.90;;;;;;5088440;28;20043;-61
2023/07/22 07:43:34;;;;;;;15.33;9.93;;;16.30;99.90;;;;;;5088298;28;20043;-62
2023/07/22 07:46:22;;;;;;;12.82;8.23;;;16.30;99.90;;;;;;5088638;28;20493;-62
2023/07/22 07:48:51;;;;;;;14.60;9.55;;;16.40;99.90;;;;;;5087915;28;20043;-61
2023/07/22 07:51:19;;;;;;;16.08;9.32;;;16.50;99.90;;;;;;5099486;28;20056;-61
2023/07/22 07:53:49;;;;;;;14.00;8.73;;;16.60;99.90;;;;;;5084873;28;20545;-61
2023/07/22 07:56:15;;;;;;;13.20;9.35;;;16.80;99.90;;;;;;5089490;28;20096;-61
2023/07/22 07:58:41;;;;;;;14.00;8.35;;;16.90;99.90;;;;;;5087760;28;20476;-61
2023/07/22 08:01:07;;;;;;;16.58;8.80;;;17.00;99.90;;;;;;5088521;28;20044;-61
2023/07/22 08:03:35;;;;;;;14.75;9.48;;;17.10;99.90;;;;;;5088217;28;20093;-61
2023/07/22 08:06:01;;;;;;;13.40;8.93;;;17.20;99.90;;;;;;5089525;28;20083;-61
2023/07/22 08:08:27;;;;;;;14.57;7.85;;;17.20;99.90;;;;;;5092802;28;20075;-61
2023/07/22 08:11:00;;;;;;;12.15;8.90;;;17.30;99.90;;;;;;5089376;28;20036;-61
2023/07/22 08:13:27;;;;;;;12.68;8.88;;;17.40;99.90;;;;;;5089329;28;20047;-63
2023/07/22 08:15:53;;;;;;;16.58;8.35;;;17.40;99.90;;;;;;5087251;28;20052;-61
2023/07/22 08:18:19;;;;;;;13.85;8.68;;;17.40;99.90;;;;;;5088247;28;20378;-62
2023/07/22 08:20:47;;;;;;;13.45;8.80;;;17.40;99.90;;;;;;5121809;28;20043;-62
2023/07/22 08:23:13;;;;;;;12.88;8.55;;;17.50;99.90;;;;;;5070764;28;20040;-61
2023/07/22 08:25:39;;;;;;;13.10;8.57;;;17.60;99.90;;;;;;5089369;28;20039;-61
2023/07/22 08:28:05;;;;;;;16.52;8.13;;;17.60;99.90;;;;;;5092253;28;20396;-62
2023/07/22 08:30:30;;;;;;;14.55;8.10;;;17.60;99.90;;;;;;5087582;28;20072;-62
2023/07/22 08:32:56;;;;;;;13.50;7.72;;;17.50;99.90;;;;;;5091706;28;20047;-64
2023/07/22 08:35:22;;;;;;;11.27;6.55;;;17.50;99.90;;;;;;5092774;28;20553;-64
2023/07/22 08:37:48;;;;;;;12.38;6.60;;;17.40;99.90;;;;;;5088525;28;20047;-64
2023/07/22 08:40:13;;;;;;;9.95;5.93;;;17.30;99.90;;;;;;5089633;28;20362;-63
2023/07/22 08:42:41;;;;;;;12.48;5.63;;;17.30;99.90;;;;;;5124886;27;20039;-63
2023/07/22 08:45:09;;;;;;;9.15;5.78;;;17.30;99.90;;;;;;5090140;28;20072;-63
2023/07/22 08:47:45;;;;;;;8.70;4.78;;;17.30;99.90;;;;;;5091131;28;20500;-63
2023/07/22 08:50:19;;;;;;;8.73;5.43;;;17.30;99.90;;;;;;5093764;28;20106;-63
2023/07/22 08:52:46;;;;;;;10.13;6.40;;;17.30;99.90;;;;;;5075237;28;20039;-63
2023/07/22 08:55:13;;;;;;;8.10;5.75;;;17.30;99.90;;;;;;5090081;28;20032;-64
2023/07/22 08:57:41;;;;;;;9.98;5.47;;;17.30;99.90;;;;;;5090497;28;20071;-64
2023/07/22 09:00:09;;;;;;;8.75;5.00;;;17.20;99.90;;;;;;5099152;28;20126;-64
2023/07/22 09:02:35;;;;;;;8.13;5.25;;;17.20;99.90;;;;;;5110482;28;20450;-64
2023/07/22 09:05:02;;;;;;;10.15;5.88;;;17.10;99.90;;;;;;5091446;28;20048;-64
2023/07/22 09:07:29;;;;;;;9.30;5.40;;;17.10;99.90;;;;;;5073506;28;20044;-65
2023/07/22 09:09:56;;;;;;;10.77;6.50;;;17.10;99.90;;;;;;5091558;28;20119;-66
2023/07/22 09:12:22;;;;;;;9.13;5.40;;;17.10;99.90;;;;;;5089532;28;20051;-66
2023/07/22 09:14:50;;;;;;;11.27;6.30;;;17.10;99.90;;;;;;5089812;28;20048;-66
2023/07/22 09:17:15;;;;;;;11.55;5.93;;;17.10;99.90;;;;;;5101729;28;20043;-66
2023/07/22 09:19:41;;;;;;;8.32;5.30;;;17.20;99.90;;;;;;5089227;28;20437;-66
2023/07/22 09:22:08;;;;;;;10.50;5.82;;;17.10;99.90;;;;;;5090497;28;20060;-67
2023/07/22 09:24:33;;;;;;;14.48;7.65;;;17.10;99.90;;;;;;5090870;28;20036;-67
2023/07/22 09:27:00;;;;;;;19.63;10.23;;;16.90;99.90;;;;;;5089838;28;20048;-67
2023/07/22 09:29:37;;;;;;;12.68;9.18;;;16.70;99.90;;;;;;5109265;28;20051;-67
2023/07/22 09:32:04;;;;;;;18.27;11.57;;;16.60;99.90;;;;;;5090104;28;20036;-67
2023/07/22 09:34:30;;;;;;;23.27;14.05;;;16.50;99.90;;;;;;5100756;28;20043;-66
2023/07/22 09:37:00;;;;;;;24.73;15.70;;;16.40;99.90;;;;;;5089798;28;20388;-66
2023/07/22 09:39:26;;;;;;;23.88;16.38;;;16.30;99.90;;;;;;5088943;28;20048;-66
2023/07/22 09:41:55;;;;;;;25.08;15.65;;;16.40;99.90;;;;;;5069042;28;20635;-66
2023/07/22 09:44:21;;;;;;;24.92;15.18;;;16.40;99.90;;;;;;5070044;28;20044;-66
2023/07/22 09:46:48;;;;;;;21.85;15.27;;;16.40;99.90;;;;;;5088918;28;20044;-66
2023/07/22 09:49:16;;;;;;;23.83;15.07;;;16.30;99.90;;;;;;5109449;28;20472;-66
2023/07/22 09:51:42;;;;;;;19.05;12.85;;;16.30;99.90;;;;;;5090931;28;20052;-66
2023/07/22 09:54:08;;;;;;;19.67;11.30;;;16.30;99.90;;;;;;5088240;28;20465;-66
2023/07/22 09:56:49;;;;;;;16.13;10.95;;;16.30;99.90;;;;;;5090802;28;20123;-66
2023/07/22 09:59:17;;;;;;;14.32;9.48;;;16.30;99.90;;;;;;5103104;28;20123;-66
2023/07/22 10:01:46;;;;;;;14.77;9.02;;;16.30;99.90;;;;;;5070903;28;20051;-66
2023/07/22 10:04:16;;;;;;;10.05;6.32;;;16.20;99.90;;;;;;5090674;28;20055;-67
2023/07/22 10:06:43;;;;;;;11.48;7.20;;;16.10;99.90;;;;;;5101859;28;20365;-66
2023/07/22 10:09:11;;;;;;;12.00;7.18;;;16.00;99.90;;;;;;5097971;28;20054;-67
2023/07/22 10:11:38;;;;;;;9.13;5.50;;;16.00;99.90;;;;;;5089944;28;20120;-67
2023/07/22 10:14:05;;;;;;;7.57;4.97;;;16.00;99.90;;;;;;5090177;28;20097;-66
2023/07/22 10:16:31;;;;;;;6.38;3.85;;;15.90;99.90;;;;;;5089202;28;20046;-67
2023/07/22 10:18:59;;;;;;;6.97;3.90;;;15.90;99.90;;;;;;5088853;28;20058;-66
2023/07/22 10:21:25;;;;;;;7.93;4.35;;;16.00;99.90;;;;;;5088338;28;20060;-66
2023/07/22 10:23:52;;;;;;;7.03;4.65;;;16.00;99.90;;;;;;5089009;28;20081;-66
2023/07/22 10:26:19;;;;;;;6.47;3.88;;;16.10;99.90;;;;;;5093434;28;20118;-66
2023/07/22 10:28:46;;;;;;;6.60;3.80;;;16.10;99.90;;;;;;5089850;28;20046;-67
2023/07/22 10:31:20;;;;;;;7.57;3.75;;;16.10;99.90;;;;;;5089153;28;20051;-66
2023/07/22 10:33:46;;;;;;;6.40;3.90;;;16.00;99.90;;;;;;5087194;28;20043;-66
2023/07/22 10:36:17;;;;;;;9.07;4.28;;;16.00;99.90;;;;;;5088857;28;20036;-66
2023/07/22 10:38:43;;;;;;;8.90;3.92;;;16.00;99.90;;;;;;5087497;28;20090;-66
2023/07/22 10:41:13;;;;;;;9.23;4.55;;;15.90;99.90;;;;;;5100677;28;20069;-66
2023/07/22 10:43:39;;;;;;;7.03;3.95;;;15.90;99.90;;;;;;5094724;28;20476;-66
2023/07/22 10:46:09;;;;;;;6.95;3.70;;;15.90;99.90;;;;;;5089184;28;20044;-66
2023/07/22 10:48:37;;;;;;;7.43;4.03;;;15.90;99.90;;;;;;5087761;28;20040;-67
2023/07/22 10:51:21;;;;;;;6.70;4.32;;;15.90;99.90;;;;;;5089563;28;20091;-67
2023/07/22 10:53:48;;;;;;;6.35;3.90;;;16.00;99.90;;;;;;5070621;28;20451;-66
2023/07/22 10:56:19;;;;;;;8.38;4.63;;;15.90;99.90;;;;;;5089977;28;20036;-66
2023/07/22 10:58:46;;;;;;;9.30;5.28;;;15.90;99.90;;;;;;5089080;28;20385;-66
2023/07/22 11:01:29;;;;;;;9.25;4.32;;;16.00;99.90;;;;;;5088883;28;20059;-66
2023/07/22 11:04:13;;;;;;;7.50;4.38;;;16.00;99.90;;;;;;5071056;28;20048;-66
2023/07/22 11:06:46;;;;;;;10.00;5.32;;;16.00;99.90;;;;;;5088953;28;20036;-67
2023/07/22 11:09:30;;;;;;;9.60;6.78;;;16.00;99.90;;;;;;5074953;28;20176;-66
2023/07/22 11:12:18;;;;;;;7.77;5.43;;;16.10;99.90;;;;;;5087618;28;20052;-66
2023/07/22 11:14:48;;;;;;;8.65;6.15;;;16.10;99.90;;;;;;5092245;28;20050;-66
2023/07/22 11:17:14;;;;;;;7.18;5.03;;;16.20;99.90;;;;;;5111065;27;20040;-67
2023/07/22 11:19:40;;;;;;;9.80;5.43;;;16.20;99.90;;;;;;5068716;28;20036;-66
2023/07/22 11:22:06;;;;;;;9.02;4.93;;;16.20;99.90;;;;;;5103668;28;20048;-66
2023/07/22 11:24:35;;;;;;;7.82;5.03;;;16.10;99.90;;;;;;5088311;28;20040;-66
2023/07/22 11:27:04;;;;;;;8.80;5.75;;;16.10;99.90;;;;;;5087990;28;20093;-66
2023/07/22 11:29:31;;;;;;;7.78;5.75;;;16.10;99.90;;;;;;5122620;27;20101;-61
2023/07/22 11:31:57;;;;;;;9.80;6.47;;;16.10;99.90;;;;;;5087939;28;20046;-61
2023/07/22 11:34:24;;;;;;;8.45;6.10;;;16.00;99.90;;;;;;5089898;28;20047;-61
2023/07/22 11:36:52;;;;;;;11.38;6.53;;;16.10;99.90;;;;;;5087805;28;20047;-61
2023/07/22 11:39:19;;;;;;;10.20;6.03;;;16.10;99.90;;;;;;5088556;28;20040;-61
2023/07/22 11:41:46;;;;;;;9.70;5.60;;;16.10;99.90;;;;;;5071454;28;20119;-61
2023/07/22 11:44:22;;;;;;;11.10;7.32;;;16.10;99.90;;;;;;5094355;28;20036;-61
2023/07/22 11:46:54;;;;;;;10.70;6.63;;;16.10;99.90;;;;;;5109272;28;20040;-60
2023/07/22 11:49:37;;;;;;;10.48;6.25;;;16.20;99.90;;;;;;5099921;28;20064;-61
2023/07/22 11:52:05;;;;;;;11.82;7.03;;;16.30;99.90;;;;;;5088375;28;20060;-61
2023/07/22 11:54:37;;;;;;;8.48;6.43;;;16.30;99.90;;;;;;5086440;28;20075;-61
2023/07/22 11:57:21;;;;;;;9.13;5.82;;;16.30;99.90;;;;;;5088463;28;20051;-61
2023/07/22 11:59:48;;;;;;;8.88;6.28;;;16.30;99.90;;;;;;5097637;28;20118;-61
2023/07/22 12:02:16;;;;;;;9.80;6.00;;;16.40;99.90;;;;;;5071574;28;20140;-61
2023/07/22 12:04:43;;;;;;;10.02;6.13;;;16.40;99.90;;;;;;5070947;28;20123;-61
2023/07/22 12:07:29;;;;;;;9.77;5.80;;;16.50;99.90;;;;;;5088419;28;20883;-62
2023/07/22 12:09:56;;;;;;;8.43;5.45;;;16.50;99.90;;;;;;5091939;28;20051;-61
2023/07/22 12:12:33;;;;;;;10.05;5.85;;;16.60;99.90;;;;;;5091164;28;20043;-61
2023/07/22 12:15:19;;;;;;;10.10;6.00;;;16.60;99.90;;;;;;5092868;28;20047;-61
2023/07/22 12:17:59;;;;;;;8.13;4.68;;;16.60;99.90;;;;;;5091727;28;20079;-61
2023/07/22 12:20:27;;;;;;;6.75;3.95;;;16.70;99.90;;;;;;5093526;28;20097;-61
2023/07/22 12:22:56;;;;;;;7.88;4.28;;;16.80;99.90;;;;;;5090388;28;20048;-61
2023/07/22 12:25:22;;;;;;;8.52;3.95;;;16.80;99.90;;;;;;5093542;28;20076;-61
2023/07/22 12:27:49;;;;;;;6.72;3.67;;;16.90;99.90;;;;;;5091701;28;20090;-61
2023/07/22 12:30:15;;;;;;;6.30;3.30;;;17.00;99.90;;;;;;5095260;28;20046;-61
2023/07/22 12:32:41;;;;;;;7.70;3.85;;;17.00;99.90;;;;;;5091579;28;20032;-61
2023/07/22 12:35:07;;;;;;;5.53;3.75;;;17.20;99.90;;;;;;5091815;28;20036;-61
2023/07/22 12:37:34;;;;;;;5.65;3.35;;;17.30;99.90;;;;;;5125639;27;20489;-61
2023/07/22 12:40:00;;;;;;;8.70;4.00;;;17.30;99.90;;;;;;5092351;28;20415;-61
2023/07/22 12:42:27;;;;;;;5.80;4.00;;;17.40;99.90;;;;;;5074097;28;20040;-61
2023/07/22 12:44:52;;;;;;;6.35;3.63;;;17.40;99.90;;;;;;5074265;28;20645;-61